sensor_id;sensor_type;location;lat;lon;timestamp;temperature;humidity
64689;DHT22;62504;46.070;14.492;2023-05-13T00:01:13;12.40;99.90
64689;DHT22;62504;46.070;14.492;2023-05-13T00:03:39;12.40;99.90
64689;DHT22;62504;46.070;14.492;2023-05-13T00:06:05;12.40;99.90
64689;DHT22;62504;46.070;14.492;2023-05-13T00:08:31;12.40;99.90
64689;DHT22;62504;46.070;14.492;2023-05-13T00:10:56;12.40;99.90
64689;DHT22;62504;46.070;14.492;2023-05-13T00:13:22;12.40;99.90
64689;DHT22;62504;46.070;14.492;2023-05-13T00:15:48;12.40;99.90
64689;DHT22;62504;46.070;14.492;2023-05-13T00:18:13;12.40;99.90
64689;DHT22;62504;46.070;14.492;2023-05-13T00:20:39;12.50;99.90
64689;DHT22;62504;46.070;14.492;2023-05-13T00:23:05;12.40;99.90
64689;DHT22;62504;46.070;14.492;2023-05-13T00:25:32;12.50;99.90
64689;DHT22;62504;46.070;14.492;2023-05-13T00:27:58;12.40;99.90
64689;DHT22;62504;46.070;14.492;2023-05-13T00:30:23;12.50;99.90
64689;DHT22;62504;46.070;14.492;2023-05-13T00:32:49;12.40;99.90
64689;DHT22;62504;46.070;14.492;2023-05-13T00:35:15;12.50;99.90
64689;DHT22;62504;46.070;14.492;2023-05-13T00:37:40;12.40;99.90
64689;DHT22;62504;46.070;14.492;2023-05-13T00:40:21;12.40;99.90
64689;DHT22;62504;46.070;14.492;2023-05-13T00:42:47;12.40;99.90
64689;DHT22;62504;46.070;14.492;2023-05-13T00:45:13;12.50;99.90
64689;DHT22;62504;46.070;14.492;2023-05-13T00:47:40;12.50;99.90
64689;DHT22;62504;46.070;14.492;2023-05-13T00:50:07;12.50;99.90
64689;DHT22;62504;46.070;14.492;2023-05-13T00:52:35;12.50;99.90
64689;DHT22;62504;46.070;14.492;2023-05-13T00:55:02;12.40;99.90
64689;DHT22;62504;46.070;14.492;2023-05-13T00:57:28;12.40;99.90
64689;DHT22;62504;46.070;14.492;2023-05-13T00:59:53;12.50;99.90
64689;DHT22;62504;46.070;14.492;2023-05-13T01:02:30;12.50;99.90
64689;DHT22;62504;46.070;14.492;2023-05-13T01:10:54;12.50;99.90
64689;DHT22;62504;46.070;14.492;2023-05-13T01:13:27;12.40;99.90
64689;DHT22;62504;46.070;14.492;2023-05-13T01:16:37;12.50;99.90
64689;DHT22;62504;46.070;14.492;2023-05-13T01:19:20;12.30;99.90
64689;DHT22;62504;46.070;14.492;2023-05-13T01:21:51;12.20;99.90
64689;DHT22;62504;46.070;14.492;2023-05-13T01:24:17;12.20;99.90
64689;DHT22;62504;46.070;14.492;2023-05-13T01:26:43;12.30;99.90
64689;DHT22;62504;46.070;14.492;2023-05-13T01:29:09;12.30;99.90
64689;DHT22;62504;46.070;14.492;2023-05-13T01:31:34;12.20;99.90
64689;DHT22;62504;46.070;14.492;2023-05-13T01:34:01;12.30;99.90
64689;DHT22;62504;46.070;14.492;2023-05-13T01:36:28;12.20;99.90
64689;DHT22;62504;46.070;14.492;2023-05-13T01:38:54;12.30;99.90
64689;DHT22;62504;46.070;14.492;2023-05-13T01:41:20;12.40;99.90
64689;DHT22;62504;46.070;14.492;2023-05-13T01:43:46;12.40;99.90
64689;DHT22;62504;46.070;14.492;2023-05-13T01:46:12;12.40;99.90
64689;DHT22;62504;46.070;14.492;2023-05-13T01:48:38;12.50;99.90
64689;DHT22;62504;46.070;14.492;2023-05-13T01:51:03;12.50;99.90
64689;DHT22;62504;46.070;14.492;2023-05-13T01:53:29;12.50;99.90
64689;DHT22;62504;46.070;14.492;2023-05-13T01:55:55;12.50;99.90
64689;DHT22;62504;46.070;14.492;2023-05-13T01:58:21;12.50;99.90
64689;DHT22;62504;46.070;14.492;2023-05-13T02:00:46;12.40;99.90
64689;DHT22;62504;46.070;14.492;2023-05-13T02:03:12;12.50;99.90
64689;DHT22;62504;46.070;14.492;2023-05-13T02:05:37;12.40;99.90
64689;DHT22;62504;46.070;14.492;2023-05-13T02:08:05;12.40;99.90
64689;DHT22;62504;46.070;14.492;2023-05-13T02:10:32;12.50;99.90
64689;DHT22;62504;46.070;14.492;2023-05-13T02:12:57;12.50;99.90
64689;DHT22;62504;46.070;14.492;2023-05-13T02:15:23;12.50;99.90
64689;DHT22;62504;46.070;14.492;2023-05-13T02:17:48;12.60;99.90
64689;DHT22;62504;46.070;14.492;2023-05-13T02:20:14;12.60;99.90
64689;DHT22;62504;46.070;14.492;2023-05-13T02:22:39;12.60;99.90
64689;DHT22;62504;46.070;14.492;2023-05-13T02:25:05;12.60;99.90
64689;DHT22;62504;46.070;14.492;2023-05-13T02:27:31;12.50;99.90
64689;DHT22;62504;46.070;14.492;2023-05-13T02:29:57;12.40;99.90
64689;DHT22;62504;46.070;14.492;2023-05-13T02:32:22;12.40;99.90
64689;DHT22;62504;46.070;14.492;2023-05-13T02:34:48;12.40;99.90
64689;DHT22;62504;46.070;14.492;2023-05-13T02:37:13;12.50;99.90
64689;DHT22;62504;46.070;14.492;2023-05-13T02:39:39;12.50;99.90
64689;DHT22;62504;46.070;14.492;2023-05-13T02:42:05;12.40;99.90
64689;DHT22;62504;46.070;14.492;2023-05-13T02:44:30;12.40;99.90
64689;DHT22;62504;46.070;14.492;2023-05-13T02:46:56;12.50;99.90
64689;DHT22;62504;46.070;14.492;2023-05-13T02:49:21;12.60;99.90
64689;DHT22;62504;46.070;14.492;2023-05-13T02:51:47;12.50;99.90
64689;DHT22;62504;46.070;14.492;2023-05-13T02:54:13;12.50;99.90
64689;DHT22;62504;46.070;14.492;2023-05-13T02:56:38;12.40;99.90
64689;DHT22;62504;46.070;14.492;2023-05-13T02:59:04;12.40;99.90
64689;DHT22;62504;46.070;14.492;2023-05-13T03:01:29;12.20;99.90
64689;DHT22;62504;46.070;14.492;2023-05-13T03:03:55;12.20;99.90
64689;DHT22;62504;46.070;14.492;2023-05-13T03:06:20;12.20;99.90
64689;DHT22;62504;46.070;14.492;2023-05-13T03:08:46;12.20;99.90
64689;DHT22;62504;46.070;14.492;2023-05-13T03:11:12;12.30;99.90
64689;DHT22;62504;46.070;14.492;2023-05-13T03:13:37;12.20;99.90
64689;DHT22;62504;46.070;14.492;2023-05-13T03:16:03;12.10;99.90
64689;DHT22;62504;46.070;14.492;2023-05-13T03:18:29;12.10;99.90
64689;DHT22;62504;46.070;14.492;2023-05-13T03:20:56;12.10;99.90
64689;DHT22;62504;46.070;14.492;2023-05-13T03:23:22;12.10;99.90
64689;DHT22;62504;46.070;14.492;2023-05-13T03:25:48;12.00;99.90
64689;DHT22;62504;46.070;14.492;2023-05-13T03:28:13;12.10;99.90
64689;DHT22;62504;46.070;14.492;2023-05-13T03:30:39;12.10;99.90
64689;DHT22;62504;46.070;14.492;2023-05-13T03:33:04;12.00;99.90
64689;DHT22;62504;46.070;14.492;2023-05-13T03:35:30;12.00;99.90
64689;DHT22;62504;46.070;14.492;2023-05-13T03:37:56;12.00;99.90
64689;DHT22;62504;46.070;14.492;2023-05-13T03:40:21;12.00;99.90
64689;DHT22;62504;46.070;14.492;2023-05-13T03:42:47;12.10;99.90
64689;DHT22;62504;46.070;14.492;2023-05-13T03:45:13;12.00;99.90
64689;DHT22;62504;46.070;14.492;2023-05-13T03:47:38;12.00;99.90
64689;DHT22;62504;46.070;14.492;2023-05-13T03:50:04;11.90;99.90
64689;DHT22;62504;46.070;14.492;2023-05-13T03:52:30;12.00;99.90
64689;DHT22;62504;46.070;14.492;2023-05-13T03:54:56;11.90;99.90
64689;DHT22;62504;46.070;14.492;2023-05-13T03:57:21;11.80;99.90
64689;DHT22;62504;46.070;14.492;2023-05-13T03:59:47;11.70;99.90
64689;DHT22;62504;46.070;14.492;2023-05-13T04:02:12;11.80;99.90
64689;DHT22;62504;46.070;14.492;2023-05-13T04:04:38;12.00;99.90
64689;DHT22;62504;46.070;14.492;2023-05-13T04:07:04;12.10;99.90
64689;DHT22;62504;46.070;14.492;2023-05-13T04:09:29;12.00;99.90
64689;DHT22;62504;46.070;14.492;2023-05-13T04:11:55;11.90;99.90
64689;DHT22;62504;46.070;14.492;2023-05-13T04:14:20;12.00;99.90
64689;DHT22;62504;46.070;14.492;2023-05-13T04:16:46;12.10;99.90
64689;DHT22;62504;46.070;14.492;2023-05-13T04:19:12;12.10;99.90
64689;DHT22;62504;46.070;14.492;2023-05-13T04:21:37;12.20;99.90
64689;DHT22;62504;46.070;14.492;2023-05-13T04:24:03;12.10;99.90
64689;DHT22;62504;46.070;14.492;2023-05-13T04:26:29;12.10;99.90
64689;DHT22;62504;46.070;14.492;2023-05-13T04:28:54;12.00;99.90
64689;DHT22;62504;46.070;14.492;2023-05-13T04:31:20;12.00;99.90
64689;DHT22;62504;46.070;14.492;2023-05-13T04:33:46;12.10;99.90
64689;DHT22;62504;46.070;14.492;2023-05-13T04:36:11;12.20;99.90
64689;DHT22;62504;46.070;14.492;2023-05-13T04:38:37;12.20;99.90
64689;DHT22;62504;46.070;14.492;2023-05-13T04:41:03;12.30;99.90
64689;DHT22;62504;46.070;14.492;2023-05-13T04:43:28;12.30;99.90
64689;DHT22;62504;46.070;14.492;2023-05-13T04:45:54;12.30;99.90
64689;DHT22;62504;46.070;14.492;2023-05-13T04:48:19;12.20;99.90
64689;DHT22;62504;46.070;14.492;2023-05-13T04:50:46;12.30;99.90
64689;DHT22;62504;46.070;14.492;2023-05-13T04:53:12;12.40;99.90
64689;DHT22;62504;46.070;14.492;2023-05-13T04:55:38;12.40;99.90
64689;DHT22;62504;46.070;14.492;2023-05-13T04:58:03;12.40;99.90
64689;DHT22;62504;46.070;14.492;2023-05-13T05:00:29;12.30;99.90
64689;DHT22;62504;46.070;14.492;2023-05-13T05:02:55;12.30;99.90
64689;DHT22;62504;46.070;14.492;2023-05-13T05:05:21;12.30;99.90
64689;DHT22;62504;46.070;14.492;2023-05-13T05:07:46;12.20;99.90
64689;DHT22;62504;46.070;14.492;2023-05-13T05:10:12;12.20;99.90
64689;DHT22;62504;46.070;14.492;2023-05-13T05:12:40;12.30;99.90
64689;DHT22;62504;46.070;14.492;2023-05-13T05:15:06;12.30;99.90
64689;DHT22;62504;46.070;14.492;2023-05-13T05:17:42;12.40;99.90
64689;DHT22;62504;46.070;14.492;2023-05-13T05:20:09;12.40;99.90
64689;DHT22;62504;46.070;14.492;2023-05-13T05:22:36;12.50;99.90
64689;DHT22;62504;46.070;14.492;2023-05-13T05:25:02;12.60;99.90
64689;DHT22;62504;46.070;14.492;2023-05-13T05:27:27;12.70;99.90
64689;DHT22;62504;46.070;14.492;2023-05-13T05:29:53;12.80;99.90
64689;DHT22;62504;46.070;14.492;2023-05-13T05:32:19;13.00;99.90
64689;DHT22;62504;46.070;14.492;2023-05-13T05:34:44;13.00;99.90
64689;DHT22;62504;46.070;14.492;2023-05-13T05:37:10;13.00;99.90
64689;DHT22;62504;46.070;14.492;2023-05-13T05:39:36;13.00;99.90
64689;DHT22;62504;46.070;14.492;2023-05-13T05:42:01;12.90;99.90
64689;DHT22;62504;46.070;14.492;2023-05-13T05:44:27;13.00;99.90
64689;DHT22;62504;46.070;14.492;2023-05-13T05:46:52;12.90;99.90
64689;DHT22;62504;46.070;14.492;2023-05-13T05:49:18;12.90;99.90
64689;DHT22;62504;46.070;14.492;2023-05-13T05:51:44;13.00;99.90
64689;DHT22;62504;46.070;14.492;2023-05-13T05:54:09;13.10;99.90
64689;DHT22;62504;46.070;14.492;2023-05-13T05:56:35;13.30;99.90
64689;DHT22;62504;46.070;14.492;2023-05-13T05:59:01;13.30;99.90
64689;DHT22;62504;46.070;14.492;2023-05-13T06:01:28;13.50;99.90
64689;DHT22;62504;46.070;14.492;2023-05-13T06:03:57;13.40;99.90
64689;DHT22;62504;46.070;14.492;2023-05-13T06:06:23;13.30;99.90
64689;DHT22;62504;46.070;14.492;2023-05-13T06:08:48;13.30;99.90
64689;DHT22;62504;46.070;14.492;2023-05-13T06:11:14;13.30;99.90
64689;DHT22;62504;46.070;14.492;2023-05-13T06:13:39;13.50;99.90
64689;DHT22;62504;46.070;14.492;2023-05-13T06:16:05;13.50;99.90
64689;DHT22;62504;46.070;14.492;2023-05-13T06:18:31;13.30;99.90
64689;DHT22;62504;46.070;14.492;2023-05-13T06:20:56;13.40;99.90
64689;DHT22;62504;46.070;14.492;2023-05-13T06:23:22;13.40;99.90
64689;DHT22;62504;46.070;14.492;2023-05-13T06:25:48;13.50;99.90
64689;DHT22;62504;46.070;14.492;2023-05-13T06:28:13;13.30;99.90
64689;DHT22;62504;46.070;14.492;2023-05-13T06:30:39;13.20;99.90
64689;DHT22;62504;46.070;14.492;2023-05-13T06:33:05;13.20;99.90
64689;DHT22;62504;46.070;14.492;2023-05-13T06:35:32;13.50;99.90
64689;DHT22;62504;46.070;14.492;2023-05-13T06:37:58;13.60;99.90
64689;DHT22;62504;46.070;14.492;2023-05-13T06:40:24;13.60;99.90
64689;DHT22;62504;46.070;14.492;2023-05-13T06:42:51;13.60;99.90
64689;DHT22;62504;46.070;14.492;2023-05-13T06:45:17;14.00;99.90
64689;DHT22;62504;46.070;14.492;2023-05-13T06:47:50;14.20;99.90
64689;DHT22;62504;46.070;14.492;2023-05-13T06:50:16;14.20;99.90
64689;DHT22;62504;46.070;14.492;2023-05-13T06:52:42;14.00;99.90
64689;DHT22;62504;46.070;14.492;2023-05-13T06:55:08;13.90;99.90
64689;DHT22;62504;46.070;14.492;2023-05-13T06:57:34;13.80;99.90
64689;DHT22;62504;46.070;14.492;2023-05-13T07:00:00;13.80;99.90
64689;DHT22;62504;46.070;14.492;2023-05-13T07:02:25;13.80;99.90
64689;DHT22;62504;46.070;14.492;2023-05-13T07:04:51;13.70;99.90
64689;DHT22;62504;46.070;14.492;2023-05-13T07:07:17;13.60;99.90
64689;DHT22;62504;46.070;14.492;2023-05-13T07:09:43;13.60;99.90
64689;DHT22;62504;46.070;14.492;2023-05-13T07:12:09;13.60;99.90
64689;DHT22;62504;46.070;14.492;2023-05-13T07:14:35;13.60;99.90
64689;DHT22;62504;46.070;14.492;2023-05-13T07:17:02;13.60;99.90
64689;DHT22;62504;46.070;14.492;2023-05-13T07:19:28;13.70;99.90
64689;DHT22;62504;46.070;14.492;2023-05-13T07:21:54;13.60;99.90
64689;DHT22;62504;46.070;14.492;2023-05-13T07:24:20;13.60;99.90
64689;DHT22;62504;46.070;14.492;2023-05-13T07:26:45;13.70;99.90
64689;DHT22;62504;46.070;14.492;2023-05-13T07:29:11;13.70;99.90
64689;DHT22;62504;46.070;14.492;2023-05-13T07:31:37;13.80;99.90
64689;DHT22;62504;46.070;14.492;2023-05-13T07:34:02;13.90;99.90
64689;DHT22;62504;46.070;14.492;2023-05-13T07:36:28;14.00;99.90
64689;DHT22;62504;46.070;14.492;2023-05-13T07:38:54;13.90;99.90
64689;DHT22;62504;46.070;14.492;2023-05-13T07:41:19;14.00;99.90
64689;DHT22;62504;46.070;14.492;2023-05-13T07:43:48;14.00;99.90
64689;DHT22;62504;46.070;14.492;2023-05-13T07:46:13;14.20;99.90
64689;DHT22;62504;46.070;14.492;2023-05-13T07:48:39;14.20;99.90
64689;DHT22;62504;46.070;14.492;2023-05-13T07:51:05;14.20;99.90
64689;DHT22;62504;46.070;14.492;2023-05-13T07:53:33;14.20;99.90
64689;DHT22;62504;46.070;14.492;2023-05-13T07:56:01;14.10;99.90
64689;DHT22;62504;46.070;14.492;2023-05-13T07:58:27;14.10;99.90
64689;DHT22;62504;46.070;14.492;2023-05-13T08:00:52;14.00;99.90
64689;DHT22;62504;46.070;14.492;2023-05-13T08:03:18;14.00;99.90
64689;DHT22;62504;46.070;14.492;2023-05-13T08:05:43;13.90;99.90
64689;DHT22;62504;46.070;14.492;2023-05-13T08:08:09;13.80;99.90
64689;DHT22;62504;46.070;14.492;2023-05-13T08:10:35;13.70;99.90
64689;DHT22;62504;46.070;14.492;2023-05-13T08:13:00;13.60;99.90
64689;DHT22;62504;46.070;14.492;2023-05-13T08:15:26;13.60;99.90
64689;DHT22;62504;46.070;14.492;2023-05-13T08:17:52;13.50;99.90
64689;DHT22;62504;46.070;14.492;2023-05-13T08:20:19;13.50;99.90
64689;DHT22;62504;46.070;14.492;2023-05-13T08:22:45;13.50;99.90
64689;DHT22;62504;46.070;14.492;2023-05-13T08:25:11;13.40;99.90
64689;DHT22;62504;46.070;14.492;2023-05-13T08:27:36;13.50;99.90
64689;DHT22;62504;46.070;14.492;2023-05-13T08:30:03;13.60;99.90
64689;DHT22;62504;46.070;14.492;2023-05-13T08:32:29;13.70;99.90
64689;DHT22;62504;46.070;14.492;2023-05-13T08:34:54;13.70;99.90
64689;DHT22;62504;46.070;14.492;2023-05-13T08:37:20;13.70;99.90
64689;DHT22;62504;46.070;14.492;2023-05-13T08:39:46;13.60;99.90
64689;DHT22;62504;46.070;14.492;2023-05-13T08:42:12;13.70;99.90
64689;DHT22;62504;46.070;14.492;2023-05-13T08:44:46;13.70;99.90
64689;DHT22;62504;46.070;14.492;2023-05-13T08:49:57;13.80;99.90
64689;DHT22;62504;46.070;14.492;2023-05-13T08:52:22;13.70;99.90
64689;DHT22;62504;46.070;14.492;2023-05-13T08:54:48;13.80;99.90
64689;DHT22;62504;46.070;14.492;2023-05-13T08:57:15;13.90;99.90
64689;DHT22;62504;46.070;14.492;2023-05-13T08:59:40;13.80;99.90
64689;DHT22;62504;46.070;14.492;2023-05-13T09:02:06;13.70;99.90
64689;DHT22;62504;46.070;14.492;2023-05-13T09:04:33;13.70;99.90
64689;DHT22;62504;46.070;14.492;2023-05-13T09:07:05;13.80;99.90
64689;DHT22;62504;46.070;14.492;2023-05-13T09:09:32;13.90;99.90
64689;DHT22;62504;46.070;14.492;2023-05-13T09:11:58;13.90;99.90
64689;DHT22;62504;46.070;14.492;2023-05-13T09:14:29;14.00;99.90
64689;DHT22;62504;46.070;14.492;2023-05-13T09:16:56;14.00;99.90
64689;DHT22;62504;46.070;14.492;2023-05-13T09:19:23;14.10;99.90
64689;DHT22;62504;46.070;14.492;2023-05-13T09:21:49;14.10;99.90
64689;DHT22;62504;46.070;14.492;2023-05-13T09:24:15;14.00;99.90
64689;DHT22;62504;46.070;14.492;2023-05-13T09:26:47;14.10;99.90
64689;DHT22;62504;46.070;14.492;2023-05-13T09:29:23;14.00;99.90
64689;DHT22;62504;46.070;14.492;2023-05-13T09:31:52;14.10;99.90
64689;DHT22;62504;46.070;14.492;2023-05-13T09:34:25;14.20;99.90
64689;DHT22;62504;46.070;14.492;2023-05-13T09:37:07;14.30;99.90
64689;DHT22;62504;46.070;14.492;2023-05-13T09:39:40;14.20;99.90
64689;DHT22;62504;46.070;14.492;2023-05-13T09:42:14;14.20;99.90
64689;DHT22;62504;46.070;14.492;2023-05-13T09:44:40;14.30;99.90
64689;DHT22;62504;46.070;14.492;2023-05-13T09:47:10;14.40;99.90
64689;DHT22;62504;46.070;14.492;2023-05-13T09:49:36;14.40;99.90
64689;DHT22;62504;46.070;14.492;2023-05-13T09:52:02;14.40;99.90
64689;DHT22;62504;46.070;14.492;2023-05-13T09:54:34;14.30;99.90
64689;DHT22;62504;46.070;14.492;2023-05-13T09:57:00;14.40;99.90
64689;DHT22;62504;46.070;14.492;2023-05-13T09:59:26;14.10;99.90
64689;DHT22;62504;46.070;14.492;2023-05-13T10:01:53;14.30;99.90
64689;DHT22;62504;46.070;14.492;2023-05-13T10:04:19;14.40;99.90
64689;DHT22;62504;46.070;14.492;2023-05-13T10:06:46;14.50;99.90
64689;DHT22;62504;46.070;14.492;2023-05-13T10:09:13;14.40;99.90
64689;DHT22;62504;46.070;14.492;2023-05-13T10:11:42;14.40;99.90
64689;DHT22;62504;46.070;14.492;2023-05-13T10:14:09;14.30;99.90
64689;DHT22;62504;46.070;14.492;2023-05-13T10:16:36;14.20;99.90
64689;DHT22;62504;46.070;14.492;2023-05-13T10:19:02;14.20;99.90
64689;DHT22;62504;46.070;14.492;2023-05-13T10:21:29;14.10;99.90
64689;DHT22;62504;46.070;14.492;2023-05-13T10:23:56;13.90;99.90
64689;DHT22;62504;46.070;14.492;2023-05-13T10:26:23;14.10;99.90
64689;DHT22;62504;46.070;14.492;2023-05-13T10:28:49;14.20;99.90
64689;DHT22;62504;46.070;14.492;2023-05-13T10:31:15;14.10;99.90
64689;DHT22;62504;46.070;14.492;2023-05-13T10:33:42;14.20;99.90
64689;DHT22;62504;46.070;14.492;2023-05-13T10:36:22;14.30;99.90
64689;DHT22;62504;46.070;14.492;2023-05-13T10:44:19;14.30;99.90
64689;DHT22;62504;46.070;14.492;2023-05-13T10:46:47;14.20;99.90
64689;DHT22;62504;46.070;14.492;2023-05-13T10:49:13;14.30;99.90
64689;DHT22;62504;46.070;14.492;2023-05-13T10:51:46;14.20;99.90
64689;DHT22;62504;46.070;14.492;2023-05-13T10:54:21;14.20;99.90
64689;DHT22;62504;46.070;14.492;2023-05-13T10:56:57;14.00;99.90
64689;DHT22;62504;46.070;14.492;2023-05-13T10:59:24;14.10;99.90
64689;DHT22;62504;46.070;14.492;2023-05-13T11:01:49;14.00;99.90
64689;DHT22;62504;46.070;14.492;2023-05-13T11:04:18;14.10;99.90
64689;DHT22;62504;46.070;14.492;2023-05-13T11:06:46;14.20;99.90
64689;DHT22;62504;46.070;14.492;2023-05-13T11:09:31;14.10;99.90
64689;DHT22;62504;46.070;14.492;2023-05-13T11:11:59;14.10;99.90
64689;DHT22;62504;46.070;14.492;2023-05-13T11:14:26;14.00;99.90
64689;DHT22;62504;46.070;14.492;2023-05-13T11:17:16;14.00;99.90
64689;DHT22;62504;46.070;14.492;2023-05-13T11:19:47;14.10;99.90
64689;DHT22;62504;46.070;14.492;2023-05-13T11:22:18;13.90;99.90
64689;DHT22;62504;46.070;14.492;2023-05-13T11:24:48;14.10;99.90
64689;DHT22;62504;46.070;14.492;2023-05-13T11:27:27;13.90;99.90
64689;DHT22;62504;46.070;14.492;2023-05-13T11:29:54;13.80;99.90
64689;DHT22;62504;46.070;14.492;2023-05-13T11:35:12;13.70;99.90
64689;DHT22;62504;46.070;14.492;2023-05-13T11:37:41;13.80;99.90
64689;DHT22;62504;46.070;14.492;2023-05-13T11:40:08;13.70;99.90
64689;DHT22;62504;46.070;14.492;2023-05-13T11:42:35;13.80;99.90
64689;DHT22;62504;46.070;14.492;2023-05-13T11:45:03;13.80;99.90
64689;DHT22;62504;46.070;14.492;2023-05-13T11:47:30;13.90;99.90
64689;DHT22;62504;46.070;14.492;2023-05-13T11:49:55;13.90;99.90
64689;DHT22;62504;46.070;14.492;2023-05-13T11:52:21;13.90;99.90
64689;DHT22;62504;46.070;14.492;2023-05-13T11:54:52;13.80;99.90
64689;DHT22;62504;46.070;14.492;2023-05-13T11:57:19;13.90;99.90
64689;DHT22;62504;46.070;14.492;2023-05-13T12:02:29;14.00;99.90
64689;DHT22;62504;46.070;14.492;2023-05-13T12:04:58;14.10;99.90
64689;DHT22;62504;46.070;14.492;2023-05-13T12:07:25;14.20;99.90
64689;DHT22;62504;46.070;14.492;2023-05-13T12:09:52;14.20;99.90
64689;DHT22;62504;46.070;14.492;2023-05-13T12:12:18;14.30;99.90
64689;DHT22;62504;46.070;14.492;2023-05-13T12:14:45;14.40;99.90
64689;DHT22;62504;46.070;14.492;2023-05-13T12:17:12;14.50;99.90
64689;DHT22;62504;46.070;14.492;2023-05-13T12:19:39;14.60;99.90
64689;DHT22;62504;46.070;14.492;2023-05-13T12:22:04;14.60;99.90
64689;DHT22;62504;46.070;14.492;2023-05-13T12:24:32;14.50;99.90
64689;DHT22;62504;46.070;14.492;2023-05-13T12:27:05;14.30;99.90
64689;DHT22;62504;46.070;14.492;2023-05-13T12:29:41;14.30;99.90
64689;DHT22;62504;46.070;14.492;2023-05-13T12:32:07;14.30;99.90
64689;DHT22;62504;46.070;14.492;2023-05-13T12:34:34;14.40;99.90
64689;DHT22;62504;46.070;14.492;2023-05-13T12:37:12;14.30;99.90
64689;DHT22;62504;46.070;14.492;2023-05-13T12:39:41;14.50;99.90
64689;DHT22;62504;46.070;14.492;2023-05-13T12:42:15;14.30;99.90
64689;DHT22;62504;46.070;14.492;2023-05-13T12:44:44;14.30;99.90
64689;DHT22;62504;46.070;14.492;2023-05-13T12:47:11;14.30;99.90
64689;DHT22;62504;46.070;14.492;2023-05-13T12:49:51;14.20;99.90
64689;DHT22;62504;46.070;14.492;2023-05-13T12:52:17;14.20;99.90
64689;DHT22;62504;46.070;14.492;2023-05-13T12:54:43;14.10;99.90
64689;DHT22;62504;46.070;14.492;2023-05-13T12:57:09;14.20;99.90
64689;DHT22;62504;46.070;14.492;2023-05-13T12:59:34;14.20;99.90
64689;DHT22;62504;46.070;14.492;2023-05-13T13:02:00;14.20;99.90
64689;DHT22;62504;46.070;14.492;2023-05-13T13:04:25;14.30;99.90
64689;DHT22;62504;46.070;14.492;2023-05-13T13:06:51;14.30;99.90
64689;DHT22;62504;46.070;14.492;2023-05-13T13:09:16;14.30;99.90
64689;DHT22;62504;46.070;14.492;2023-05-13T13:11:42;14.30;99.90
64689;DHT22;62504;46.070;14.492;2023-05-13T13:14:08;14.40;99.90
64689;DHT22;62504;46.070;14.492;2023-05-13T13:16:33;14.50;99.90
64689;DHT22;62504;46.070;14.492;2023-05-13T13:18:59;14.40;99.90
64689;DHT22;62504;46.070;14.492;2023-05-13T13:21:25;14.30;99.90
64689;DHT22;62504;46.070;14.492;2023-05-13T13:23:50;14.20;99.90
64689;DHT22;62504;46.070;14.492;2023-05-13T13:26:16;14.10;99.90
64689;DHT22;62504;46.070;14.492;2023-05-13T13:28:42;14.20;99.90
64689;DHT22;62504;46.070;14.492;2023-05-13T13:31:07;14.20;99.90
64689;DHT22;62504;46.070;14.492;2023-05-13T13:33:33;14.10;99.90
64689;DHT22;62504;46.070;14.492;2023-05-13T13:35:58;14.10;99.90
64689;DHT22;62504;46.070;14.492;2023-05-13T13:38:24;14.10;99.90
64689;DHT22;62504;46.070;14.492;2023-05-13T13:40:50;14.10;99.90
64689;DHT22;62504;46.070;14.492;2023-05-13T13:43:15;14.00;99.90
64689;DHT22;62504;46.070;14.492;2023-05-13T13:45:41;14.00;99.90
64689;DHT22;62504;46.070;14.492;2023-05-13T13:48:06;14.00;99.90
64689;DHT22;62504;46.070;14.492;2023-05-13T13:50:32;13.90;99.90
64689;DHT22;62504;46.070;14.492;2023-05-13T13:52:58;14.00;99.90
64689;DHT22;62504;46.070;14.492;2023-05-13T13:55:23;13.90;99.90
64689;DHT22;62504;46.070;14.492;2023-05-13T13:57:49;13.90;99.90
64689;DHT22;62504;46.070;14.492;2023-05-13T14:00:16;14.00;99.90
64689;DHT22;62504;46.070;14.492;2023-05-13T14:02:42;14.00;99.90
64689;DHT22;62504;46.070;14.492;2023-05-13T14:05:08;14.00;99.90
64689;DHT22;62504;46.070;14.492;2023-05-13T14:07:35;14.10;99.90
64689;DHT22;62504;46.070;14.492;2023-05-13T14:10:02;14.10;99.90
64689;DHT22;62504;46.070;14.492;2023-05-13T14:12:27;14.20;99.90
64689;DHT22;62504;46.070;14.492;2023-05-13T14:14:53;14.20;99.90
64689;DHT22;62504;46.070;14.492;2023-05-13T14:17:19;14.20;99.90
64689;DHT22;62504;46.070;14.492;2023-05-13T14:19:44;14.20;99.90
64689;DHT22;62504;46.070;14.492;2023-05-13T14:22:11;14.20;99.90
64689;DHT22;62504;46.070;14.492;2023-05-13T14:24:36;14.00;99.90
64689;DHT22;62504;46.070;14.492;2023-05-13T14:27:02;14.20;99.90
64689;DHT22;62504;46.070;14.492;2023-05-13T14:29:27;14.20;99.90
64689;DHT22;62504;46.070;14.492;2023-05-13T14:31:53;14.20;99.90
64689;DHT22;62504;46.070;14.492;2023-05-13T14:34:19;14.20;99.90
64689;DHT22;62504;46.070;14.492;2023-05-13T14:36:44;14.20;99.90
64689;DHT22;62504;46.070;14.492;2023-05-13T14:39:10;14.20;99.90
64689;DHT22;62504;46.070;14.492;2023-05-13T14:41:36;14.10;99.90
64689;DHT22;62504;46.070;14.492;2023-05-13T14:44:02;14.20;99.90
64689;DHT22;62504;46.070;14.492;2023-05-13T14:46:27;14.30;99.90
64689;DHT22;62504;46.070;14.492;2023-05-13T14:48:53;14.30;99.90
64689;DHT22;62504;46.070;14.492;2023-05-13T14:51:19;14.20;99.90
64689;DHT22;62504;46.070;14.492;2023-05-13T14:53:45;14.40;99.90
64689;DHT22;62504;46.070;14.492;2023-05-13T14:56:11;14.40;99.90
64689;DHT22;62504;46.070;14.492;2023-05-13T14:58:36;14.40;99.90
64689;DHT22;62504;46.070;14.492;2023-05-13T15:01:02;14.30;99.90
64689;DHT22;62504;46.070;14.492;2023-05-13T15:03:28;14.30;99.90
64689;DHT22;62504;46.070;14.492;2023-05-13T15:05:53;14.40;99.90
64689;DHT22;62504;46.070;14.492;2023-05-13T15:08:20;14.50;99.90
64689;DHT22;62504;46.070;14.492;2023-05-13T15:10:46;14.50;99.90
64689;DHT22;62504;46.070;14.492;2023-05-13T15:13:12;14.40;99.90
64689;DHT22;62504;46.070;14.492;2023-05-13T15:15:37;14.40;99.90
64689;DHT22;62504;46.070;14.492;2023-05-13T15:18:04;14.50;99.90
64689;DHT22;62504;46.070;14.492;2023-05-13T15:20:29;14.60;99.90
64689;DHT22;62504;46.070;14.492;2023-05-13T15:22:55;14.80;99.90
64689;DHT22;62504;46.070;14.492;2023-05-13T15:25:22;14.80;99.90
64689;DHT22;62504;46.070;14.492;2023-05-13T15:27:48;14.90;99.90
64689;DHT22;62504;46.070;14.492;2023-05-13T15:30:14;14.90;99.90
64689;DHT22;62504;46.070;14.492;2023-05-13T15:32:40;15.00;99.90